Terminal Aerodrome Forecast
Issued by NWS

Home | Current Version | Previous Version | Text Only | Print | Product List | Glossary On
Versions: 1 2 3 4 5 6 7 8 9 10 11 12 13 14 15 16 17 18 19 20 21 22
522
FTUS44 KTSA 200659 AAB
TAFMLC
TAF AMD
KMLC 200659Z 2007/2106 16011G20KT P6SM FEW070 BKN080
      TEMPO 2008/2012 3SM TSRA BR BKN020CB
     FM201200 18005KT P6SM OVC035
      TEMPO 2012/2016 5SM -RA BR OVC020
     FM202200 19005KT P6SM BKN150
     FM210200 19003KT P6SM BKN250=

USA.gov is the U.S. government's official web portal to all federal, state and local government web resources and services.